Time;durP1;ratioP1;P1;durP2;ratioP2;P2;SDS_P1;SDS_P2;PMS_P1;PMS_P2;Temp;Humidity;BMP_temperature;BMP_pressure;BME280_temperature;BME280_humidity;BME280_pressure;Samples;Min_cycle;Max_cycle;Signal;HPM_P1;HPM_P2
2021/09/09 00:00:26;;;;;;;11.32;5.90;;;;;;;16.95;56.79;100668.28;5069402;28;20028;-21
2021/09/09 00:02:52;;;;;;;9.07;5.45;;;;;;;16.59;56.93;100670.34;5069432;28;20472;-21
2021/09/09 00:05:17;;;;;;;7.65;5.38;;;;;;;16.29;58.16;100667.97;5069201;28;20063;-21
2021/09/09 00:07:43;;;;;;;13.57;5.88;;;;;;;16.43;57.74;100650.44;5068919;28;20028;-21
2021/09/09 00:10:09;;;;;;;7.25;4.78;;;;;;;16.75;57.46;100674.13;5069215;28;20052;-21
2021/09/09 00:12:34;;;;;;;7.57;5.43;;;;;;;16.68;57.32;100668.91;5068941;28;20081;-21
2021/09/09 00:15:00;;;;;;;27.52;12.23;;;;;;;17.12;56.23;100685.25;5069184;28;20025;-21
2021/09/09 00:17:25;;;;;;;41.13;18.60;;;;;;;17.13;56.17;100675.28;5069401;28;20500;-21
2021/09/09 00:19:51;;;;;;;37.38;15.73;;;;;;;17.10;57.16;100676.59;5051079;28;20037;-21
2021/09/09 00:22:16;;;;;;;22.55;12.35;;;;;;;17.04;56.33;100682.94;5069347;28;20444;-21
2021/09/09 00:24:42;;;;;;;26.92;11.93;;;;;;;16.83;56.91;100677.25;5051120;28;20099;-21
2021/09/09 00:27:07;;;;;;;38.95;17.50;;;;;;;16.66;57.18;100679.09;5050989;28;20037;-21
2021/09/09 00:29:33;;;;;;;10.98;6.13;;;;;;;16.39;58.43;100671.66;5068951;28;20060;-21
2021/09/09 00:31:58;;;;;;;15.52;5.60;;;;;;;16.72;57.28;100674.63;5068411;28;20067;-21
2021/09/09 00:34:24;;;;;;;17.38;5.55;;;;;;;16.93;57.49;100676.59;5068813;28;20035;-21
2021/09/09 00:36:49;;;;;;;8.23;4.80;;;;;;;17.08;56.84;100673.31;5069070;28;20040;-21
2021/09/09 00:39:15;;;;;;;11.40;4.82;;;;;;;17.27;55.63;100655.78;5068726;28;20463;-21
2021/09/09 00:41:40;;;;;;;63.30;35.85;;;;;;;17.54;55.04;100660.47;5068293;28;20078;-21
2021/09/09 00:44:19;;;;;;;46.45;28.15;;;;;;;17.55;55.58;100683.69;5068894;28;20117;-21
2021/09/09 00:47:06;;;;;;;7.75;5.10;;;;;;;17.25;56.21;100673.28;5068446;28;20111;-24
2021/09/09 00:49:32;;;;;;;8.70;5.32;;;;;;;17.26;56.38;100673.06;5068502;28;20029;-23
2021/09/09 00:51:58;;;;;;;7.07;5.18;;;;;;;17.39;56.12;100674.56;5067566;28;20468;-23
2021/09/09 00:54:23;;;;;;;6.72;4.50;;;;;;;17.51;55.59;100670.91;5068401;28;20025;-23
2021/09/09 00:56:49;;;;;;;9.10;5.80;;;;;;;17.56;56.35;100668.31;5068413;28;20028;-23
2021/09/09 00:59:15;;;;;;;7.15;5.10;;;;;;;17.52;56.12;100670.69;5068078;28;20056;-23
2021/09/09 01:01:41;;;;;;;13.02;5.72;;;;;;;17.54;55.47;100671.25;5067825;28;20502;-23
2021/09/09 01:04:07;;;;;;;11.50;5.13;;;;;;;17.37;56.25;100654.31;5068016;28;20028;-24
2021/09/09 01:06:32;;;;;;;19.40;5.75;;;;;;;17.65;55.58;100677.56;5068007;28;20111;-21
2021/09/09 01:08:58;;;;;;;8.65;5.35;;;;;;;17.62;55.38;100680.78;5067977;28;20029;-22
2021/09/09 01:11:24;;;;;;;8.35;5.53;;;;;;;17.55;55.58;100667.50;5067942;28;20039;-22
2021/09/09 01:13:50;;;;;;;8.00;5.40;;;;;;;17.17;56.88;100661.03;5067468;28;20029;-22
2021/09/09 01:16:15;;;;;;;8.77;5.82;;;;;;;17.51;56.73;100682.53;5067602;28;20028;-21
2021/09/09 01:18:41;;;;;;;9.13;5.72;;;;;;;17.78;55.56;100676.41;5067781;28;20036;-22
2021/09/09 01:21:06;;;;;;;9.48;5.82;;;;;;;17.51;56.67;100665.53;5067992;28;20094;-22
2021/09/09 01:23:32;;;;;;;8.70;5.82;;;;;;;17.52;55.58;100646.41;5067355;28;20060;-21
2021/09/09 01:25:57;;;;;;;11.90;6.80;;;;;;;17.75;55.33;100666.09;5049959;28;20040;-22
2021/09/09 01:28:23;;;;;;;12.00;6.20;;;;;;;17.66;55.54;100653.06;5067897;28;20523;-22
2021/09/09 01:30:48;;;;;;;9.30;6.65;;;;;;;17.61;55.89;100663.78;5067562;28;20035;-22
2021/09/09 01:33:14;;;;;;;9.48;5.88;;;;;;;17.91;55.03;100665.22;5067864;28;20052;-22
2021/09/09 01:35:39;;;;;;;11.25;6.20;;;;;;;17.93;55.85;100668.50;5067429;28;20032;-21
2021/09/09 01:38:19;;;;;;;9.63;6.20;;;;;;;17.84;55.31;100665.44;5067504;28;20028;-22
2021/09/09 01:40:45;;;;;;;8.77;5.75;;;;;;;17.27;56.04;100666.59;5051484;28;20407;-21
2021/09/09 01:43:10;;;;;;;9.50;5.90;;;;;;;16.89;57.35;100658.47;5067861;28;20032;-21
2021/09/09 01:45:35;;;;;;;10.13;5.68;;;;;;;17.09;57.50;100648.00;5067558;28;20033;-21
2021/09/09 01:48:01;;;;;;;10.77;6.00;;;;;;;17.38;56.67;100662.13;5067472;28;20512;-21
2021/09/09 01:50:26;;;;;;;9.82;5.88;;;;;;;17.30;57.08;100640.19;5049693;28;20054;-22
2021/09/09 01:52:52;;;;;;;9.40;5.25;;;;;;;17.76;56.00;100662.34;5067294;28;20109;-22
2021/09/09 01:55:17;;;;;;;8.65;5.55;;;;;;;17.61;56.44;100661.09;5067423;28;20032;-21
2021/09/09 01:57:43;;;;;;;9.25;5.68;;;;;;;17.57;55.73;100643.78;5067046;28;20067;-21
2021/09/09 02:00:09;;;;;;;7.90;4.85;;;;;;;17.78;54.96;100644.84;5067363;28;20024;-21
2021/09/09 02:02:34;;;;;;;8.38;5.07;;;;;;;17.57;55.65;100646.50;5049744;28;20064;-21
2021/09/09 02:05:00;;;;;;;11.70;5.40;;;;;;;17.47;55.94;100638.28;5049504;28;20040;-22
2021/09/09 02:07:25;;;;;;;7.65;4.88;;;;;;;17.55;55.95;100639.69;5067353;28;20423;-21
2021/09/09 02:09:51;;;;;;;8.98;4.80;;;;;;;17.21;56.72;100631.72;5067140;28;20114;-21
2021/09/09 02:12:16;;;;;;;7.95;4.20;;;;;;;17.20;57.08;100628.22;5067058;28;20404;-22
2021/09/09 02:14:42;;;;;;;8.13;4.72;;;;;;;17.21;57.54;100624.44;5067283;28;20515;-23
2021/09/09 02:17:09;;;;;;;7.55;4.80;;;;;;;17.16;56.96;100621.69;5049558;28;20040;-21
2021/09/09 02:19:34;;;;;;;6.78;5.00;;;;;;;17.02;57.40;100620.41;5067382;28;20143;-21
2021/09/09 02:22:00;;;;;;;9.38;5.00;;;;;;;17.09;57.63;100631.81;5067248;28;20143;-21
2021/09/09 02:24:25;;;;;;;8.73;4.80;;;;;;;17.04;57.92;100620.97;5067167;28;20063;-21
2021/09/09 02:26:51;;;;;;;5.93;4.47;;;;;;;17.25;57.22;100620.19;5067498;28;20063;-22
2021/09/09 02:29:16;;;;;;;6.53;4.45;;;;;;;16.92;57.95;100615.69;5067071;28;20032;-22
2021/09/09 02:31:42;;;;;;;7.13;4.65;;;;;;;16.96;57.99;100616.84;5066693;28;20036;-21
2021/09/09 02:34:07;;;;;;;8.93;5.05;;;;;;;16.91;58.54;100607.84;5067862;28;20051;-21
2021/09/09 02:36:33;;;;;;;11.15;5.18;;;;;;;16.92;58.53;100607.63;5071101;28;20035;-21
2021/09/09 02:38:59;;;;;;;5.90;4.00;;;;;;;16.82;58.51;100616.38;5070993;28;20034;-22
2021/09/09 02:41:24;;;;;;;7.25;4.30;;;;;;;16.70;58.92;100602.16;5070922;28;20727;-21
2021/09/09 02:43:50;;;;;;;7.00;4.75;;;;;;;16.74;58.54;100619.44;5070555;28;20040;-22
2021/09/09 02:46:15;;;;;;;12.88;6.78;;;;;;;16.06;60.34;100600.56;5070715;28;20032;-21
2021/09/09 02:48:41;;;;;;;43.80;18.45;;;;;;;15.89;61.49;100613.16;5070474;28;20115;-22
2021/09/09 02:51:06;;;;;;;58.92;22.98;;;;;;;15.67;62.18;100612.97;5070648;28;20036;-22
2021/09/09 02:53:32;;;;;;;45.88;18.23;;;;;;;15.57;62.50;100612.75;5070396;28;20067;-21
2021/09/09 02:55:57;;;;;;;45.28;19.05;;;;;;;15.63;62.52;100614.50;5070658;28;20082;-21
2021/09/09 02:58:23;;;;;;;40.95;22.85;;;;;;;15.58;62.67;100591.03;5070385;28;20033;-21
2021/09/09 03:00:48;;;;;;;15.88;9.98;;;;;;;16.05;61.65;100606.19;5070457;28;20081;-21
2021/09/09 03:03:14;;;;;;;15.20;6.07;;;;;;;16.11;61.45;100613.28;5070418;28;20041;-22
2021/09/09 03:05:39;;;;;;;8.70;5.82;;;;;;;15.97;61.86;100606.56;5052104;28;20024;-22
2021/09/09 03:08:05;;;;;;;9.45;5.35;;;;;;;16.08;61.68;100616.47;5070447;28;20040;-21
2021/09/09 03:10:30;;;;;;;8.02;5.00;;;;;;;16.25;61.21;100611.13;5070260;28;20024;-22
2021/09/09 03:12:56;;;;;;;7.97;5.15;;;;;;;16.40;60.70;100615.94;5070066;28;20052;-22
2021/09/09 03:15:21;;;;;;;12.50;5.90;;;;;;;16.51;60.47;100611.53;5070423;28;20047;-22
2021/09/09 03:17:47;;;;;;;9.10;5.15;;;;;;;16.15;61.37;100584.03;5069710;28;20069;-22
2021/09/09 03:20:12;;;;;;;8.13;5.53;;;;;;;16.31;61.10;100604.75;5069947;28;20031;-22
2021/09/09 03:22:38;;;;;;;8.60;5.55;;;;;;;16.37;60.87;100603.78;5070188;28;20044;-22
2021/09/09 03:25:04;;;;;;;10.45;6.18;;;;;;;16.23;61.11;100586.31;5069939;28;20115;-21
2021/09/09 03:27:29;;;;;;;9.30;6.43;;;;;;;16.22;61.59;100606.19;5070022;28;20032;-22
2021/09/09 03:29:55;;;;;;;11.82;6.65;;;;;;;16.22;62.12;100612.41;5070063;28;20917;-21
2021/09/09 03:32:21;;;;;;;10.43;7.38;;;;;;;16.40;61.57;100608.66;5069949;28;20070;-22
2021/09/09 03:34:46;;;;;;;11.10;6.22;;;;;;;16.19;61.70;100585.19;5069789;28;20039;-21
2021/09/09 03:37:12;;;;;;;9.40;6.43;;;;;;;16.16;62.53;100608.00;5069454;28;20032;-22
2021/09/09 03:39:37;;;;;;;12.68;6.45;;;;;;;16.15;62.33;100608.25;5069462;28;20024;-21
2021/09/09 03:42:03;;;;;;;11.00;6.57;;;;;;;16.05;62.95;100603.50;5069530;28;20029;-22
2021/09/09 03:44:28;;;;;;;11.82;6.13;;;;;;;16.18;62.77;100618.50;5069627;28;20033;-22
2021/09/09 03:46:54;;;;;;;9.95;6.05;;;;;;;16.13;62.70;100603.09;5067834;28;20040;-22
2021/09/09 03:49:19;;;;;;;12.93;7.05;;;;;;;16.24;62.80;100617.53;5069753;28;20694;-21
2021/09/09 03:51:45;;;;;;;9.38;6.43;;;;;;;16.23;62.75;100626.69;5069004;28;20041;-21
2021/09/09 03:54:10;;;;;;;12.77;6.80;;;;;;;16.18;63.09;100607.75;5069186;28;20435;-21
2021/09/09 03:56:36;;;;;;;13.00;6.90;;;;;;;16.18;63.44;100615.81;5069321;28;20032;-21
2021/09/09 03:59:01;;;;;;;9.77;6.72;;;;;;;15.98;64.20;100616.28;5069371;28;20140;-21
2021/09/09 04:01:27;;;;;;;8.32;6.97;;;;;;;16.19;64.45;100630.91;5069228;28;20122;-21
2021/09/09 04:03:52;;;;;;;9.65;7.25;;;;;;;16.12;64.92;100623.00;5069159;28;20804;-21
2021/09/09 04:06:20;;;;;;;10.30;7.15;;;;;;;16.14;64.90;100620.06;5069876;28;21048;-22
2021/09/09 04:08:45;;;;;;;11.35;7.10;;;;;;;16.39;64.59;100617.00;5069422;28;20040;-21
2021/09/09 04:11:11;;;;;;;11.25;7.20;;;;;;;16.74;63.93;100634.78;5068954;28;20087;-21
2021/09/09 04:13:37;;;;;;;11.27;8.55;;;;;;;16.81;64.22;100635.47;5068790;28;20403;-21
2021/09/09 04:16:03;;;;;;;15.85;7.72;;;;;;;16.42;65.66;100633.47;5068779;28;20035;-21
2021/09/09 04:18:28;;;;;;;10.77;7.80;;;;;;;16.21;66.81;100626.91;5069028;28;20033;-21
2021/09/09 04:20:54;;;;;;;11.60;8.70;;;;;;;16.25;67.46;100628.06;5068955;28;20555;-21
2021/09/09 04:23:19;;;;;;;10.73;7.80;;;;;;;16.55;66.68;100635.03;5051222;28;20071;-21
2021/09/09 04:25:45;;;;;;;10.88;8.13;;;;;;;16.61;65.82;100641.31;5068478;28;20062;-21
2021/09/09 04:28:10;;;;;;;14.98;10.00;;;;;;;16.19;67.14;100629.03;5068836;28;20040;-21
2021/09/09 04:30:36;;;;;;;14.43;11.77;;;;;;;15.89;68.94;100612.34;5068791;28;20028;-21
2021/09/09 04:33:01;;;;;;;12.43;9.98;;;;;;;16.12;68.17;100635.63;5068471;28;20570;-21
2021/09/09 04:35:27;;;;;;;14.43;10.15;;;;;;;16.10;68.33;100624.28;5069078;28;20037;-21
2021/09/09 04:37:52;;;;;;;25.73;13.13;;;;;;;16.11;69.01;100625.94;5068417;28;20040;-21
2021/09/09 04:40:18;;;;;;;33.70;18.38;;;;;;;16.12;69.77;100624.84;5068234;28;20086;-21
2021/09/09 04:42:43;;;;;;;36.63;18.77;;;;;;;16.24;69.36;100617.53;5068873;28;20032;-21
2021/09/09 04:45:09;;;;;;;26.35;16.33;;;;;;;16.01;69.69;100611.22;5068559;28;20093;-21
2021/09/09 04:47:36;;;;;;;32.22;19.52;;;;;;;16.15;69.90;100609.06;5068223;28;20464;-21
2021/09/09 04:50:02;;;;;;;23.60;13.73;;;;;;;15.94;71.39;100607.88;5068201;28;20119;-21
2021/09/09 04:52:28;;;;;;;18.70;12.25;;;;;;;16.07;71.27;100614.81;5068187;28;20059;-21
2021/09/09 04:54:53;;;;;;;14.95;10.18;;;;;;;16.15;71.17;100616.31;5068110;28;20036;-21
2021/09/09 04:57:19;;;;;;;12.80;9.77;;;;;;;15.53;73.65;100614.28;5067549;28;20037;-21
2021/09/09 04:59:44;;;;;;;14.27;9.65;;;;;;;15.43;73.54;100606.88;5067766;28;20408;-21
2021/09/09 05:02:10;;;;;;;10.65;8.82;;;;;;;15.46;72.77;100619.81;5068014;28;20078;-21
2021/09/09 05:04:38;;;;;;;13.38;9.82;;;;;;;15.67;72.80;100605.75;5068516;28;20028;-21
2021/09/09 05:07:03;;;;;;;;;;;;;;;15.79;72.04;100619.19;5068021;28;20060;-21
2021/09/09 05:09:29;;;;;;;11.63;9.32;;;;;;;15.83;71.80;100601.50;5068221;28;19958;-21
2021/09/09 05:11:54;;;;;;;13.45;9.43;;;;;;;15.65;72.48;100612.38;5067914;28;20036;-21
2021/09/09 05:14:20;;;;;;;11.57;9.15;;;;;;;15.39;73.36;100603.03;5067872;28;20032;-21
2021/09/09 05:16:45;;;;;;;11.68;9.85;;;;;;;15.55;73.10;100620.25;5067915;28;20043;-21
2021/09/09 05:19:11;;;;;;;12.93;9.57;;;;;;;15.65;72.17;100613.22;5067878;28;20024;-21
2021/09/09 05:21:36;;;;;;;11.77;9.57;;;;;;;15.67;71.44;100621.03;5067598;28;20039;-21
2021/09/09 05:24:02;;;;;;;12.15;9.48;;;;;;;15.74;72.03;100626.31;5067884;28;20032;-21
2021/09/09 05:26:27;;;;;;;11.85;9.82;;;;;;;15.96;72.13;100621.09;5068182;28;20126;-21
2021/09/09 05:28:53;;;;;;;13.07;9.75;;;;;;;15.96;72.05;100621.09;5068011;28;20095;-21
2021/09/09 05:31:18;;;;;;;10.70;9.60;;;;;;;15.89;72.59;100612.34;5067519;28;20036;-21
2021/09/09 05:33:44;;;;;;;12.07;9.38;;;;;;;16.07;71.11;100614.81;5067245;28;20085;-21
2021/09/09 05:36:09;;;;;;;13.50;10.55;;;;;;;16.13;71.71;100618.44;5067498;28;20111;-21
2021/09/09 05:38:35;;;;;;;13.02;9.77;;;;;;;16.33;71.01;100624.16;5067408;28;20064;-21
2021/09/09 05:41:00;;;;;;;12.82;10.23;;;;;;;16.27;70.78;100625.16;5067520;28;20466;-21
2021/09/09 05:43:26;;;;;;;12.85;10.02;;;;;;;16.59;70.39;100621.88;5067393;28;20052;-21
2021/09/09 05:45:51;;;;;;;10.95;9.75;;;;;;;16.16;71.01;100612.56;5067204;28;20036;-21
2021/09/09 05:48:17;;;;;;;10.88;9.40;;;;;;;16.03;71.48;100619.06;5067300;28;20488;-21
2021/09/09 05:50:42;;;;;;;11.68;9.55;;;;;;;16.11;71.32;100624.06;5067431;28;20032;-21
2021/09/09 05:53:08;;;;;;;12.13;9.60;;;;;;;15.87;71.58;100626.03;5066986;28;20096;-21
2021/09/09 05:55:33;;;;;;;15.82;9.60;;;;;;;16.10;70.96;100630.50;5067200;28;20024;-21
2021/09/09 05:57:59;;;;;;;12.93;9.70;;;;;;;16.17;70.76;100623.09;5067345;28;20040;-21
2021/09/09 06:00:24;;;;;;;11.63;9.75;;;;;;;16.42;71.36;100628.06;5067615;28;20115;-21
2021/09/09 06:02:50;;;;;;;10.82;9.35;;;;;;;16.53;70.70;100612.94;5067376;28;20032;-21
2021/09/09 06:05:17;;;;;;;11.70;9.38;;;;;;;16.53;70.88;100628.25;5067306;28;20040;-21
2021/09/09 06:07:42;;;;;;;15.02;9.02;;;;;;;16.46;70.93;100634.59;5066996;28;20036;-21
2021/09/09 06:10:08;;;;;;;11.77;9.20;;;;;;;16.30;71.01;100627.34;5071154;28;20035;-21
2021/09/09 06:12:34;;;;;;;10.90;8.77;;;;;;;16.26;71.88;100623.50;5053362;28;20028;-21
2021/09/09 06:14:59;;;;;;;12.38;10.07;;;;;;;16.20;71.91;100613.69;5071409;28;20420;-21
2021/09/09 06:17:25;;;;;;;14.48;9.57;;;;;;;16.44;71.18;100615.19;5071197;28;20098;-21
2021/09/09 06:19:50;;;;;;;14.07;10.18;;;;;;;16.48;71.23;100610.94;5071055;28;20507;-21
2021/09/09 06:22:16;;;;;;;10.95;8.70;;;;;;;16.63;70.61;100625.72;5071031;28;20388;-21
2021/09/09 06:24:41;;;;;;;11.85;9.45;;;;;;;16.77;70.88;100628.91;5071090;28;20116;-21
2021/09/09 06:27:07;;;;;;;11.15;8.73;;;;;;;16.79;70.88;100630.28;5070846;28;20032;-21
2021/09/09 06:29:32;;;;;;;13.68;9.60;;;;;;;16.76;70.77;100611.94;5071014;28;20051;-21
2021/09/09 06:31:58;;;;;;;12.32;9.38;;;;;;;17.27;69.58;100612.66;5070343;28;20048;-21
2021/09/09 06:34:23;;;;;;;10.93;8.57;;;;;;;17.20;68.72;100620.13;5070991;28;20484;-21
2021/09/09 06:36:49;;;;;;;12.75;8.32;;;;;;;17.14;69.22;100623.00;5071143;28;20800;-21
2021/09/09 06:39:15;;;;;;;13.68;9.02;;;;;;;16.96;70.00;100621.38;5071381;28;20033;-21
2021/09/09 06:41:44;;;;;;;11.73;8.85;;;;;;;17.18;69.95;100633.03;5070470;28;20024;-21
2021/09/09 06:44:13;;;;;;;11.10;8.13;;;;;;;17.55;68.67;100635.13;5070871;28;20028;-21
2021/09/09 06:46:39;;;;;;;10.88;8.30;;;;;;;17.50;68.42;100628.84;5070856;28;20032;-21
2021/09/09 06:49:05;;;;;;;11.00;8.25;;;;;;;17.30;68.77;100629.41;5070786;28;20029;-21
2021/09/09 06:51:31;;;;;;;10.18;7.68;;;;;;;17.35;68.94;100634.88;5070850;28;20043;-21
2021/09/09 06:53:56;;;;;;;10.57;8.15;;;;;;;17.27;69.37;100628.84;5070177;28;20154;-21
2021/09/09 06:56:22;;;;;;;11.55;8.75;;;;;;;16.92;70.53;100621.09;5070480;28;20600;-21
2021/09/09 06:58:47;;;;;;;11.20;7.95;;;;;;;17.14;69.67;100650.78;5070338;28;20028;-21
2021/09/09 07:01:13;;;;;;;10.52;8.00;;;;;;;17.46;69.38;100637.44;5070388;28;20511;-21
2021/09/09 07:03:39;;;;;;;10.20;7.40;;;;;;;17.57;67.99;100627.59;5070148;28;20037;-21
2021/09/09 07:06:05;;;;;;;9.50;8.32;;;;;;;17.30;68.78;100637.50;5070367;28;20418;-21
2021/09/09 07:08:30;;;;;;;13.48;8.55;;;;;;;17.41;69.09;100641.97;5070230;28;20036;-21
2021/09/09 07:10:56;;;;;;;8.82;7.55;;;;;;;17.50;68.20;100616.19;5070454;28;20040;-21
2021/09/09 07:13:23;;;;;;;10.43;6.85;;;;;;;17.62;67.21;100624.97;5069861;28;20101;-21
2021/09/09 07:15:49;;;;;;;8.47;6.97;;;;;;;17.90;66.38;100631.25;5070010;28;20040;-21
2021/09/09 07:18:15;;;;;;;9.07;6.40;;;;;;;17.77;65.78;100637.00;5070303;28;20060;-21
2021/09/09 07:20:40;;;;;;;11.55;7.50;;;;;;;17.73;67.27;100628.56;5069102;28;20113;-21
2021/09/09 07:23:06;;;;;;;9.60;7.10;;;;;;;17.57;67.39;100600.66;5070030;28;20033;-21
2021/09/09 07:25:31;;;;;;;10.27;6.88;;;;;;;17.90;67.36;100631.25;5069766;28;20032;-22
2021/09/09 07:27:57;;;;;;;9.80;6.65;;;;;;;18.12;65.41;100606.88;5069738;28;20029;-21
2021/09/09 07:30:22;;;;;;;11.38;7.75;;;;;;;18.38;65.42;100629.53;5070551;28;20403;-21
2021/09/09 07:32:48;;;;;;;8.45;6.85;;;;;;;18.32;64.75;100633.25;5070139;28;20032;-21
2021/09/09 07:35:13;;;;;;;12.45;8.30;;;;;;;18.26;65.69;100634.28;5069644;28;20105;-21
2021/09/09 07:37:39;;;;;;;9.40;7.03;;;;;;;18.37;64.89;100633.31;5069451;28;20036;-21
2021/09/09 07:40:05;;;;;;;9.40;6.78;;;;;;;18.60;63.58;100631.34;5070013;28;20131;-21
2021/09/09 07:42:31;;;;;;;9.32;6.38;;;;;;;18.93;63.70;100624.03;5069453;28;20039;-21
2021/09/09 07:44:56;;;;;;;10.02;6.97;;;;;;;19.47;61.39;100631.88;5069672;28;20028;-21
2021/09/09 07:47:22;;;;;;;10.02;6.65;;;;;;;19.23;61.73;100616.09;5069548;28;20421;-21
2021/09/09 07:49:47;;;;;;;7.60;6.22;;;;;;;19.54;60.92;100637.06;5069458;28;20036;-21
2021/09/09 07:52:13;;;;;;;7.22;5.35;;;;;;;19.00;58.71;100613.78;5068902;28;20486;-21
2021/09/09 07:54:38;;;;;;;9.95;5.75;;;;;;;19.10;60.60;100635.47;5069470;28;20042;-21
2021/09/09 07:57:04;;;;;;;9.02;5.43;;;;;;;19.17;59.56;100638.78;5069196;28;20036;-21
2021/09/09 07:59:29;;;;;;;8.88;4.72;;;;;;;19.25;59.70;100635.56;5069316;28;20059;-21
2021/09/09 08:01:55;;;;;;;8.93;5.40;;;;;;;19.47;58.94;100642.69;5068999;28;20599;-22
2021/09/09 08:04:23;;;;;;;10.65;5.25;;;;;;;19.51;59.54;100627.56;5069078;28;20029;-21
2021/09/09 08:06:48;;;;;;;7.63;4.50;;;;;;;19.66;58.55;100635.75;5069095;28;20036;-21
2021/09/09 08:09:14;;;;;;;7.78;4.38;;;;;;;20.12;57.64;100631.53;5069421;28;20413;-21
2021/09/09 08:11:39;;;;;;;6.90;4.25;;;;;;;20.01;56.35;100636.94;5069236;28;20037;-21
2021/09/09 08:14:05;;;;;;;6.65;4.38;;;;;;;19.78;57.68;100622.00;5069156;28;20028;-21
2021/09/09 08:16:31;;;;;;;8.15;4.65;;;;;;;19.77;57.61;100636.59;5068962;28;20090;-21
2021/09/09 08:18:56;;;;;;;7.50;4.32;;;;;;;19.89;56.87;100614.72;5068854;28;20085;-21
2021/09/09 08:21:22;;;;;;;6.85;4.10;;;;;;;20.33;56.64;100627.78;5068760;28;20107;-21
2021/09/09 08:23:47;;;;;;;6.93;4.30;;;;;;;19.80;56.11;100610.94;5068793;28;20024;-21
2021/09/09 08:26:13;;;;;;;7.10;4.20;;;;;;;19.67;56.38;100595.97;5068723;28;20112;-21
2021/09/09 08:28:39;;;;;;;8.65;3.92;;;;;;;19.70;56.68;100610.88;5068781;28;20457;-22
2021/09/09 08:31:05;;;;;;;7.65;3.90;;;;;;;19.73;55.34;100602.22;5068390;28;20036;-21
2021/09/09 08:33:31;;;;;;;6.22;3.70;;;;;;;19.71;55.61;100609.81;5067906;28;20020;-21
2021/09/09 08:35:56;;;;;;;7.47;4.05;;;;;;;20.00;56.07;100619.09;5068326;28;20103;-21
2021/09/09 08:38:22;;;;;;;9.75;4.28;;;;;;;20.12;55.66;100596.34;5068536;28;20480;-21
2021/09/09 08:40:50;;;;;;;10.35;4.47;;;;;;;20.32;55.83;100615.31;5068449;28;20074;-21
2021/09/09 08:43:15;;;;;;;7.43;3.85;;;;;;;20.20;54.83;100606.63;5068414;28;20111;-21
2021/09/09 08:45:41;;;;;;;8.18;4.75;;;;;;;20.15;55.78;100606.66;5068117;28;20115;-21
2021/09/09 08:48:08;;;;;;;6.68;3.75;;;;;;;20.20;54.98;100606.63;5068434;28;20488;-21
2021/09/09 08:50:34;;;;;;;7.47;4.65;;;;;;;20.23;55.95;100606.13;5068188;28;20064;-21
2021/09/09 08:53:00;;;;;;;7.03;4.50;;;;;;;20.37;54.74;100579.28;5067772;28;20062;-21
2021/09/09 08:55:25;;;;;;;9.27;4.72;;;;;;;20.34;54.97;100613.16;5068442;28;20025;-21
2021/09/09 08:57:51;;;;;;;6.80;4.55;;;;;;;20.20;55.37;100601.22;5068223;28;20040;-21
2021/09/09 09:00:16;;;;;;;7.38;4.75;;;;;;;20.41;54.87;100602.88;5067804;28;20107;-21
2021/09/09 09:02:49;;;;;;;7.35;4.03;;;;;;;20.62;53.75;100594.75;5068063;28;20055;-22
2021/09/09 09:05:14;;;;;;;7.82;4.05;;;;;;;20.46;53.64;100604.75;5068044;28;20024;-21
2021/09/09 09:07:40;;;;;;;9.07;4.10;;;;;;;20.44;53.24;100601.50;5068049;28;20040;-26
2021/09/09 09:10:07;;;;;;;6.28;3.85;;;;;;;20.41;53.31;100607.44;5067929;28;20829;-21
2021/09/09 09:12:49;;;;;;;7.07;3.90;;;;;;;20.35;54.64;100590.41;5068004;28;20113;-21
2021/09/09 09:15:22;;;;;;;6.60;3.95;;;;;;;20.44;53.37;100596.91;5067595;28;20285;-22
2021/09/09 09:18:04;;;;;;;8.52;3.55;;;;;;;20.59;53.33;100601.50;5067901;28;20098;-21
2021/09/09 09:20:44;;;;;;;6.85;3.40;;;;;;;20.72;52.29;100592.03;5067593;28;20483;-22
2021/09/09 09:23:18;;;;;;;7.82;3.80;;;;;;;20.78;52.79;100595.53;5067753;28;20028;-21
2021/09/09 09:25:56;;;;;;;11.93;4.70;;;;;;;20.87;53.08;100574.91;5067230;28;20102;-21
2021/09/09 09:28:56;;;;;;;9.88;5.05;;;;;;;21.55;52.92;100593.38;5067711;28;20098;-22
2021/09/09 09:31:22;;;;;;;9.00;4.60;;;;;;;21.44;51.86;100599.97;5067677;28;20040;-21
2021/09/09 09:33:54;;;;;;;8.70;4.32;;;;;;;21.16;52.60;100585.13;5067272;28;20036;-21
2021/09/09 09:36:31;;;;;;;8.80;4.10;;;;;;;20.94;53.11;100590.88;5067468;28;20029;-21
2021/09/09 09:39:03;;;;;;;9.52;5.38;;;;;;;20.82;53.83;100596.59;5067517;28;20075;-21
2021/09/09 09:41:29;;;;;;;7.03;3.50;;;;;;;20.92;52.09;100587.63;5067383;28;20037;-22
2021/09/09 09:43:57;;;;;;;9.25;4.00;;;;;;;21.02;52.21;100579.47;5066816;28;20108;-21
2021/09/09 09:46:27;;;;;;;8.73;3.83;;;;;;;20.70;52.86;100571.69;5067200;28;20059;-21
2021/09/09 09:48:53;;;;;;;6.85;4.00;;;;;;;20.51;53.29;100574.94;5067120;28;20025;-21
2021/09/09 09:51:41;;;;;;;9.77;4.10;;;;;;;20.70;52.82;100577.94;5066959;28;20039;-21
2021/09/09 09:54:08;;;;;;;7.78;4.88;;;;;;;20.72;53.32;100578.47;5037464;28;20049;-21
2021/09/09 09:56:35;;;;;;;12.02;4.40;;;;;;;20.64;52.58;100573.63;5047383;28;20040;-22
2021/09/09 09:59:01;;;;;;;7.55;3.97;;;;;;;20.60;52.66;100567.13;5047087;28;20037;-22
2021/09/09 10:01:27;;;;;;;8.93;4.30;;;;;;;20.44;53.50;100569.81;5047163;28;20126;-22
2021/09/09 10:03:53;;;;;;;7.28;4.47;;;;;;;20.39;53.52;100560.84;5029329;28;20036;-21
2021/09/09 10:06:18;;;;;;;8.05;3.95;;;;;;;20.25;53.91;100558.72;5045774;28;20029;-21
2021/09/09 10:08:44;;;;;;;9.63;4.22;;;;;;;20.35;53.82;100565.19;5045992;28;20099;-21
2021/09/09 10:11:11;;;;;;;6.85;4.43;;;;;;;20.40;53.76;100566.00;5045658;28;20025;-22
2021/09/09 10:13:37;;;;;;;7.07;4.00;;;;;;;20.41;53.46;100564.94;5029059;28;20033;-22
2021/09/09 10:16:03;;;;;;;6.28;4.10;;;;;;;20.47;53.67;100563.84;5047126;28;20037;-22
2021/09/09 10:18:29;;;;;;;8.13;4.13;;;;;;;20.46;53.88;100554.09;5046879;28;20049;-22
2021/09/09 10:20:54;;;;;;;9.25;4.38;;;;;;;20.59;53.04;100554.66;5045755;28;20044;-22
2021/09/09 10:23:21;;;;;;;6.68;3.80;;;;;;;20.10;53.21;100523.50;5045581;28;20033;-21
2021/09/09 10:25:55;;;;;;;7.15;3.47;;;;;;;20.02;53.83;100527.59;5028752;28;20028;-21
2021/09/09 10:28:45;;;;;;;7.43;4.15;;;;;;;20.24;53.61;100548.16;5046780;28;20021;-21
2021/09/09 10:31:21;;;;;;;9.00;3.63;;;;;;;20.23;53.45;100535.72;5046881;28;20108;-21
2021/09/09 10:33:53;;;;;;;7.53;4.65;;;;;;;20.37;53.82;100546.78;5046847;28;20028;-22
2021/09/09 10:36:40;;;;;;;8.43;4.07;;;;;;;20.50;53.38;100546.22;5046806;28;20068;-21
2021/09/09 10:39:20;;;;;;;8.00;4.15;;;;;;;20.40;53.81;100551.66;5046905;28;20503;-21
2021/09/09 10:41:45;;;;;;;7.10;4.00;;;;;;;20.34;53.16;100548.13;5046594;28;20472;-22
2021/09/09 10:44:11;;;;;;;7.68;3.92;;;;;;;20.18;53.55;100544.63;5045526;28;20043;-21
2021/09/09 10:46:38;;;;;;;9.48;3.60;;;;;;;20.27;53.31;100543.00;5046646;28;20028;-21
2021/09/09 10:49:04;;;;;;;7.32;3.58;;;;;;;20.32;52.82;100523.22;5046632;28;20021;-22
2021/09/09 10:51:30;;;;;;;8.20;3.80;;;;;;;20.07;53.36;100511.31;5046478;28;20045;-22
2021/09/09 10:53:56;;;;;;;7.93;3.60;;;;;;;20.09;52.93;100518.38;5044837;28;20114;-22
2021/09/09 10:56:36;;;;;;;9.18;4.40;;;;;;;20.12;53.50;100528.66;5048990;28;20040;-22
2021/09/09 10:59:14;;;;;;;10.52;3.53;;;;;;;20.18;53.17;100527.56;5050377;28;20040;-22
2021/09/09 11:01:43;;;;;;;8.82;3.55;;;;;;;20.10;53.63;100520.00;5049990;28;20033;-22
2021/09/09 11:04:27;;;;;;;7.15;3.80;;;;;;;20.17;53.10;100520.53;5050160;28;20443;-22
2021/09/09 11:06:54;;;;;;;7.90;4.03;;;;;;;20.02;53.02;100496.97;5050228;28;20111;-22
2021/09/09 11:09:19;;;;;;;9.07;3.72;;;;;;;20.07;52.96;100503.19;5048952;28;20033;-22
2021/09/09 11:11:48;;;;;;;6.32;3.97;;;;;;;20.12;53.83;100507.00;5049840;28;20102;-22
2021/09/09 11:14:14;;;;;;;6.63;3.85;;;;;;;20.00;55.75;100507.25;5050003;28;20389;-22
2021/09/09 11:16:39;;;;;;;7.15;3.97;;;;;;;19.77;57.26;100505.91;5050010;28;20472;-22
2021/09/09 11:19:06;;;;;;;9.77;4.40;;;;;;;19.52;58.08;100491.22;5050008;28;20029;-22